Time;durP1;ratioP1;P1;durP2;ratioP2;P2;SDS_P1;SDS_P2;PMS_P1;PMS_P2;Temp;Humidity;BMP_temperature;BMP_pressure;BME280_temperature;BME280_humidity;BME280_pressure;Samples;Min_cycle;Max_cycle;Signal;HPM_P1;HPM_P2
2022/01/25 00:10:01;;;;;;;24.20;16.25;;;4.70;99.90;;;4.59;81.28;102813.59;5050956;28;20238;-73
2022/01/25 00:15:27;;;;;;;27.88;17.95;;;4.70;99.90;;;4.43;81.66;102805.00;5076049;28;20200;-72
2022/01/25 00:26:21;;;;;;;28.33;18.13;;;4.50;99.90;;;4.53;81.59;102808.69;5077390;28;20172;-73
2022/01/25 00:29:02;;;;;;;28.73;17.55;;;4.50;99.90;;;4.77;81.32;102805.97;5078056;28;20192;-75
2022/01/25 00:31:31;;;;;;;23.58;15.45;;;4.70;99.90;;;4.86;81.25;102809.75;5078845;28;20176;-73
2022/01/25 00:34:00;;;;;;;25.25;16.33;;;4.70;99.90;;;4.71;80.88;102798.38;5077920;28;20199;-73
2022/01/25 00:36:29;;;;;;;26.88;18.13;;;4.70;99.90;;;4.58;80.95;102795.78;5076379;28;20547;-73
2022/01/25 00:38:58;;;;;;;26.20;18.58;;;4.70;99.90;;;4.64;80.73;102798.03;5079968;28;20184;-75
2022/01/25 00:41:27;;;;;;;26.17;17.67;;;4.70;99.90;;;4.85;80.49;102800.00;5080077;28;20263;-72
2022/01/25 00:44:00;;;;;;;23.33;17.50;;;4.70;99.90;;;4.87;80.64;102790.88;5078444;28;20692;-73
2022/01/25 00:46:30;;;;;;;27.35;18.25;;;4.80;99.90;;;4.91;81.12;102780.75;5075666;28;20176;-73
2022/01/25 00:49:02;;;;;;;27.13;18.55;;;4.80;99.90;;;4.94;80.59;102780.53;5076585;28;20230;-74
2022/01/25 00:54:28;;;;;;;29.92;18.35;;;4.90;99.90;;;4.90;79.90;102776.34;5077639;28;20219;-73
2022/01/25 00:56:58;;;;;;;28.30;17.95;;;4.90;99.90;;;4.62;80.20;102770.44;5078762;28;20194;-73
2022/01/25 00:59:31;;;;;;;25.30;17.38;;;4.70;99.90;;;4.61;80.63;102767.88;5078782;28;20177;-75
2022/01/25 01:02:04;;;;;;;27.70;18.17;;;4.70;99.90;;;4.62;81.67;102772.28;5077730;28;20210;-73
2022/01/25 01:04:34;;;;;;;27.17;19.58;;;4.70;99.90;;;4.69;80.80;102760.97;5077511;28;20212;-74
2022/01/25 01:07:08;;;;;;;25.67;16.92;;;4.70;99.90;;;4.54;81.37;102761.28;5076140;28;20276;-74
2022/01/25 01:09:39;;;;;;;22.20;16.50;;;4.60;99.90;;;4.60;80.97;102766.19;5075224;28;20207;-73
2022/01/25 01:12:17;;;;;;;22.40;16.05;;;4.60;99.90;;;4.73;80.96;102762.44;5078957;28;20192;-73
2022/01/25 01:14:59;;;;;;;23.75;17.33;;;4.60;99.90;;;4.66;80.51;102761.19;5078024;28;20239;-72
2022/01/25 01:28:51;;;;;;;27.90;18.35;;;4.70;99.90;;;4.73;80.70;102766.94;5077182;28;20203;-71
2022/01/25 01:29:19;;;;;;;29.33;18.38;;;4.70;99.90;;;4.70;81.50;102762.66;5075129;28;20198;-73
2022/01/25 01:31:57;;;;;;;27.15;16.20;;;4.70;99.90;;;4.76;81.36;102756.81;5075186;28;20242;-72
2022/01/25 01:43:05;;;;;;;29.08;18.88;;;4.60;99.90;;;4.38;80.72;102758.91;5069571;28;20207;-73
2022/01/25 01:45:44;;;;;;;31.98;19.60;;;4.60;99.90;;;4.29;81.26;102756.94;5074219;28;20180;-74
2022/01/25 01:48:28;;;;;;;31.92;19.52;;;4.40;99.90;;;4.27;81.14;102758.88;5073868;28;20660;-74
2022/01/25 01:51:06;;;;;;;29.83;19.05;;;4.30;99.90;;;4.22;81.28;102761.03;5074282;28;20222;-72
2022/01/25 01:53:36;;;;;;;28.38;16.83;;;4.30;99.90;;;4.28;81.60;102765.94;5072859;28;20567;-72
2022/01/25 01:56:05;;;;;;;31.70;17.55;;;4.30;99.90;;;4.18;81.84;102763.09;5073862;28;20200;-73
2022/01/25 01:58:37;;;;;;;33.45;20.02;;;4.30;99.90;;;4.22;81.33;102764.59;5074125;28;20218;-71
2022/01/25 02:01:08;;;;;;;40.95;23.17;;;4.30;99.90;;;4.23;81.44;102763.63;5073959;28;20173;-73
2022/01/25 02:03:38;;;;;;;31.33;19.25;;;4.20;99.90;;;4.19;80.79;102756.78;5074185;28;20219;-73
2022/01/25 02:06:06;;;;;;;36.95;20.23;;;4.20;99.90;;;4.12;80.79;102746.63;5073936;28;20189;-73
2022/01/25 02:08:35;;;;;;;29.98;18.58;;;4.20;99.90;;;4.24;80.85;102751.06;5073689;28;20184;-73
2022/01/25 02:11:04;;;;;;;37.40;21.67;;;4.20;99.90;;;4.13;81.16;102753.69;5073700;28;20676;-72
2022/01/25 02:13:33;;;;;;;35.13;21.00;;;4.20;99.90;;;4.11;81.17;102759.19;5080693;28;20204;-73
2022/01/25 02:16:05;;;;;;;41.15;23.35;;;4.20;99.90;;;4.04;81.56;102754.41;5083370;28;20183;-73
2022/01/25 02:24:07;;;;;;;35.17;22.23;;;4.10;99.90;;;4.21;80.91;102749.47;5073860;28;20231;-72
2022/01/25 02:26:36;;;;;;;40.40;22.58;;;4.20;99.90;;;4.12;81.22;102750.16;5073267;28;20184;-72
2022/01/25 02:29:04;;;;;;;34.05;22.42;;;4.10;99.90;;;4.20;81.15;102746.94;5072115;28;20214;-73
2022/01/25 02:31:33;;;;;;;36.75;21.08;;;4.20;99.90;;;4.08;81.30;102743.34;5073813;28;20203;-73
2022/01/25 02:34:01;;;;;;;42.58;22.30;;;4.10;99.90;;;4.14;81.31;102742.03;5077033;28;20204;-72
2022/01/25 02:36:33;;;;;;;40.72;23.20;;;4.10;99.90;;;3.88;81.53;102742.13;5073440;28;20176;-73
2022/01/25 02:39:01;;;;;;;40.58;24.42;;;4.00;99.90;;;3.94;81.16;102736.34;5073648;28;20194;-73
2022/01/25 02:41:30;;;;;;;48.72;25.25;;;4.00;99.90;;;3.99;81.89;102735.13;5073624;28;20184;-72
2022/01/25 02:43:58;;;;;;;42.88;25.02;;;4.00;99.90;;;3.82;81.10;102747.97;5072804;28;20579;-73
2022/01/25 02:49:16;;;;;;;42.55;22.77;;;3.90;99.90;;;3.88;81.42;102735.94;5073703;28;20219;-73
2022/01/25 02:51:49;;;;;;;49.58;26.58;;;3.90;99.90;;;3.79;81.13;102731.25;5074364;28;20319;-73
2022/01/25 02:54:18;;;;;;;42.97;26.20;;;3.80;99.90;;;3.78;80.94;102735.75;5073823;28;20284;-72
2022/01/25 02:56:48;;;;;;;42.38;24.15;;;3.80;99.90;;;3.76;80.59;102732.34;5073486;28;20177;-71
2022/01/25 02:59:18;;;;;;;46.50;22.70;;;3.80;99.90;;;3.76;80.96;102729.66;5074202;28;20531;-73
2022/01/25 03:01:49;;;;;;;49.72;26.63;;;3.80;99.90;;;3.77;80.44;102731.38;5075235;28;20175;-73
2022/01/25 03:04:21;;;;;;;47.90;27.73;;;3.80;99.90;;;3.68;80.33;102728.53;5074790;28;20223;-74
2022/01/25 03:06:51;;;;;;;46.10;24.65;;;3.70;99.90;;;3.64;80.16;102727.88;5075642;28;20213;-74
2022/01/25 03:09:19;;;;;;;50.85;24.95;;;3.70;99.90;;;3.64;80.69;102727.88;5075078;28;20199;-74
2022/01/25 03:11:51;;;;;;;45.30;23.58;;;3.70;99.90;;;3.70;80.51;102724.75;5074662;28;20564;-73
2022/01/25 03:14:22;;;;;;;41.15;24.35;;;3.70;99.90;;;3.54;80.32;102729.53;5074871;28;20220;-73
2022/01/25 03:17:06;;;;;;;40.60;22.23;;;3.70;99.90;;;3.50;80.39;102709.31;5075227;28;20632;-74
2022/01/25 03:19:50;;;;;;;51.42;25.90;;;3.60;99.90;;;3.48;80.32;102713.94;5074839;28;20583;-71
2022/01/25 03:22:42;;;;;;;48.17;26.23;;;3.50;99.90;;;3.55;80.49;102707.16;5073109;28;20196;-74
2022/01/25 03:25:09;;;;;;;45.90;23.20;;;3.50;99.90;;;3.52;80.33;102706.53;5072361;28;20250;-73
2022/01/25 03:27:37;;;;;;;49.10;24.77;;;3.60;99.90;;;3.51;79.99;102716.38;5073296;28;20194;-73
2022/01/25 03:30:07;;;;;;;48.88;26.67;;;3.50;99.90;;;3.63;79.78;102720.81;5072899;28;20230;-73
2022/01/25 03:32:35;;;;;;;41.67;23.00;;;3.60;99.90;;;3.68;79.36;102715.97;5073062;28;20195;-73
2022/01/25 03:35:05;;;;;;;40.03;23.45;;;3.70;99.90;;;3.67;79.30;102722.31;5071041;28;20306;-72
2022/01/25 03:37:34;;;;;;;45.28;25.73;;;3.70;99.90;;;3.75;79.51;102730.63;5072307;28;20238;-74
2022/01/25 03:40:04;;;;;;;45.08;23.40;;;3.80;99.90;;;3.76;78.90;102726.13;5071863;28;20263;-72
2022/01/25 03:42:36;;;;;;;38.28;22.65;;;3.80;99.90;;;3.62;78.34;102727.16;5071601;28;20172;-72
2022/01/25 03:45:06;;;;;;;41.38;22.75;;;3.70;99.90;;;3.79;79.28;102721.41;5071939;28;20223;-72
2022/01/25 03:47:46;;;;;;;47.20;23.23;;;3.80;99.90;;;3.84;78.61;102716.56;5072568;28;20739;-72
2022/01/25 03:50:13;;;;;;;41.10;24.42;;;3.80;99.90;;;3.86;78.83;102717.31;5072342;28;20196;-73
2022/01/25 03:52:42;;;;;;;47.67;24.98;;;3.90;99.90;;;4.03;78.49;102707.13;5072223;28;20188;-72
2022/01/25 03:55:11;;;;;;;44.08;23.88;;;4.00;99.90;;;4.09;77.83;102706.69;5072150;28;20196;-72
2022/01/25 03:57:39;;;;;;;43.42;22.10;;;4.10;99.90;;;3.98;77.56;102704.81;5072302;28;20250;-73
2022/01/25 04:00:10;;;;;;;37.25;22.20;;;4.00;99.90;;;3.97;77.71;102707.63;5072081;28;20179;-73
2022/01/25 04:02:46;;;;;;;41.47;21.23;;;4.00;99.90;;;3.88;77.06;102701.97;5072232;28;20184;-72
2022/01/25 04:05:21;;;;;;;40.78;24.77;;;4.00;99.90;;;3.81;78.17;102695.38;5071911;28;20235;-72
2022/01/25 04:07:52;;;;;;;39.85;22.13;;;3.90;99.90;;;3.97;78.12;102702.25;5071983;28;20187;-73
2022/01/25 04:10:26;;;;;;;40.72;23.95;;;4.00;99.90;;;4.01;78.06;102698.38;5072092;28;20172;-71
2022/01/25 04:12:57;;;;;;;41.45;24.10;;;4.00;99.90;;;3.90;77.99;102696.50;5071723;28;20222;-72
2022/01/25 04:15:25;;;;;;;40.30;22.73;;;3.90;99.90;;;4.05;77.98;102694.50;5071873;28;20207;-71
2022/01/25 04:18:01;;;;;;;43.78;21.90;;;4.00;99.90;;;4.09;77.86;102686.09;5072114;28;20714;-72
2022/01/25 04:20:33;;;;;;;43.25;22.67;;;4.10;99.90;;;4.11;77.49;102683.31;5071836;28;20176;-73
2022/01/25 04:25:49;;;;;;;41.03;22.83;;;4.10;99.90;;;3.92;77.30;102676.66;5071657;28;20203;-73
2022/01/25 04:28:17;;;;;;;45.80;21.30;;;4.00;99.90;;;3.94;77.49;102672.03;5070579;28;20184;-73
2022/01/25 04:30:45;;;;;;;36.28;21.20;;;4.00;99.90;;;4.05;77.79;102676.59;5071759;28;20204;-73
2022/01/25 04:33:20;;;;;;;37.97;23.05;;;4.00;99.90;;;4.03;77.91;102672.31;5072100;28;20712;-73
2022/01/25 04:35:58;;;;;;;44.45;22.15;;;4.00;99.90;;;3.88;77.67;102667.13;5071484;28;20176;-72
2022/01/25 04:49:33;;;;;;;35.13;20.70;;;4.00;99.90;;;4.00;77.86;102675.22;5074222;28;20265;-72
2022/01/25 04:52:05;;;;;;;35.13;22.95;;;4.00;99.90;;;4.08;77.94;102678.16;5072446;28;20287;-73
2022/01/25 04:54:50;;;;;;;33.60;19.77;;;4.00;99.90;;;4.05;77.34;102679.28;5075185;28;20632;-72
2022/01/25 04:57:35;;;;;;;33.30;19.27;;;4.00;99.90;;;4.05;77.68;102679.28;5074382;28;20203;-74
2022/01/25 05:00:07;;;;;;;38.92;20.80;;;4.10;99.90;;;4.16;77.46;102678.47;5074828;28;20172;-73
2022/01/25 05:02:46;;;;;;;40.30;23.48;;;4.10;99.90;;;4.12;77.61;102679.63;5074759;28;20249;-72
2022/01/25 05:05:27;;;;;;;37.85;21.25;;;4.10;99.90;;;3.98;77.27;102677.16;5103144;22;20228;-70
2022/01/25 05:08:01;;;;;;;34.63;20.02;;;4.10;99.90;;;4.04;78.06;102684.72;5035037;28;20220;-70
2022/01/25 05:10:36;;;;;;;38.05;21.00;;;4.00;99.90;;;4.07;77.76;102682.66;5036206;28;20180;-71
2022/01/25 05:13:17;;;;;;;35.53;20.13;;;4.10;99.90;;;4.13;77.52;102681.34;5036044;28;20215;-71
2022/01/25 05:18:39;;;;;;;37.88;20.65;;;4.10;99.90;;;4.00;77.54;102683.25;5028723;28;20197;-71
2022/01/25 05:23:54;;;;;;;35.20;20.80;;;4.00;99.90;;;3.88;77.88;102680.53;5015956;28;20214;-71
2022/01/25 05:26:26;;;;;;;38.45;18.88;;;4.00;99.90;;;3.99;77.47;102685.09;5016408;28;20257;-71
2022/01/25 05:28:59;;;;;;;36.78;20.92;;;4.00;99.90;;;3.98;78.06;102685.19;5015696;28;20208;-71
2022/01/25 05:31:27;;;;;;;36.25;22.13;;;4.00;99.90;;;3.97;78.12;102692.38;5016049;28;20209;-70
2022/01/25 05:33:56;;;;;;;35.40;22.02;;;4.00;99.90;;;3.99;77.80;102692.25;5016244;28;20260;-72
2022/01/25 05:36:25;;;;;;;42.33;23.50;;;4.00;99.90;;;3.99;77.26;102700.31;5038832;28;20242;-70
2022/01/25 05:38:57;;;;;;;39.92;21.35;;;4.00;99.90;;;4.00;77.59;102704.69;5039691;28;20163;-69
2022/01/25 05:41:29;;;;;;;42.58;22.27;;;4.00;99.90;;;3.93;77.52;102696.25;5039976;28;20189;-70
2022/01/25 05:44:22;;;;;;;35.00;20.63;;;4.00;99.90;;;4.08;77.58;102702.28;5039701;28;20262;-70
2022/01/25 05:47:04;;;;;;;38.08;22.58;;;4.10;99.90;;;4.16;77.13;102705.25;5039424;28;20185;-70
2022/01/25 05:49:35;;;;;;;36.75;19.27;;;4.10;99.90;;;4.08;77.65;102699.59;5039611;28;20182;-70
2022/01/25 05:52:06;;;;;;;41.28;20.80;;;4.10;99.90;;;4.08;77.75;102705.81;5025310;28;20589;-70
2022/01/25 05:54:36;;;;;;;40.72;22.80;;;4.10;99.90;;;4.12;77.80;102706.44;5030832;28;20214;-70
2022/01/25 05:57:07;;;;;;;44.00;22.80;;;4.10;99.90;;;4.11;77.52;102702.06;5035559;28;20633;-70
2022/01/25 05:59:37;;;;;;;44.40;22.55;;;4.10;99.90;;;4.12;77.92;102693.03;5034197;28;20189;-70
2022/01/25 06:02:06;;;;;;;48.55;21.73;;;4.10;99.90;;;4.05;78.19;102694.50;5035492;28;20182;-70
2022/01/25 06:04:35;;;;;;;42.40;23.60;;;4.10;99.90;;;3.98;78.33;102693.22;5034860;28;20559;-70
2022/01/25 06:07:04;;;;;;;39.80;20.23;;;4.00;99.90;;;4.12;78.33;102690.34;5036577;28;20197;-70
2022/01/25 06:09:35;;;;;;;44.00;25.02;;;4.10;99.90;;;4.15;78.05;102692.81;5036100;28;20193;-71
2022/01/25 06:12:06;;;;;;;40.95;23.23;;;4.10;99.90;;;4.15;77.63;102682.97;5036660;28;20197;-71
2022/01/25 06:14:34;;;;;;;43.72;23.92;;;4.20;99.90;;;4.14;78.14;102688.44;5036030;28;20209;-71
2022/01/25 06:17:03;;;;;;;39.25;22.15;;;4.10;99.90;;;4.07;78.19;102700.56;5035745;28;20174;-71
2022/01/25 06:19:34;;;;;;;39.10;21.80;;;4.10;99.90;;;4.07;78.21;102687.16;5035484;28;20196;-72
2022/01/25 06:22:03;;;;;;;42.95;22.75;;;4.10;99.90;;;4.11;77.95;102691.34;5035891;28;20277;-72
2022/01/25 06:24:32;;;;;;;38.67;22.60;;;4.10;99.90;;;4.03;78.10;102696.41;5035543;28;20267;-72
2022/01/25 06:27:00;;;;;;;45.53;23.58;;;4.00;99.90;;;4.11;78.10;102699.38;5035376;28;20635;-71
2022/01/25 06:29:32;;;;;;;46.22;23.05;;;4.10;99.90;;;4.14;78.21;102707.19;5035673;28;20232;-70
2022/01/25 06:32:01;;;;;;;45.17;23.42;;;4.10;99.90;;;4.07;78.39;102704.09;5035355;28;20678;-69
2022/01/25 06:34:29;;;;;;;43.83;22.23;;;4.10;99.90;;;4.10;77.95;102697.69;5033571;28;20217;-70
2022/01/25 06:36:58;;;;;;;38.85;21.38;;;4.10;99.90;;;4.17;77.95;102690.88;5034553;28;20178;-71
2022/01/25 06:39:26;;;;;;;42.28;21.40;;;4.10;99.90;;;4.16;78.08;102691.84;5034762;28;20209;-72
2022/01/25 06:41:55;;;;;;;35.42;20.48;;;4.10;99.90;;;4.17;77.82;102688.19;5014351;28;20228;-71
2022/01/25 06:44:23;;;;;;;39.28;21.98;;;4.10;99.90;;;4.17;77.91;102685.50;5014327;28;20206;-69
2022/01/25 06:46:53;;;;;;;43.17;23.65;;;4.20;99.90;;;3.93;77.75;102691.75;5014790;28;20261;-70
2022/01/25 06:49:21;;;;;;;40.65;23.40;;;4.00;99.90;;;4.07;77.77;102689.84;5014865;28;20178;-71
2022/01/25 06:52:11;;;;;;;38.25;21.45;;;4.10;99.90;;;4.01;77.74;102687.66;5014978;28;20220;-70
2022/01/25 06:54:42;;;;;;;42.60;23.45;;;4.00;99.90;;;4.03;77.36;102691.91;5015293;28;20297;-70
2022/01/25 06:57:10;;;;;;;35.90;21.42;;;4.10;99.90;;;3.92;77.98;102690.03;5016565;28;20189;-71
2022/01/25 06:59:39;;;;;;;41.97;23.58;;;4.00;99.90;;;4.04;78.32;102698.13;5016120;28;20197;-70
2022/01/25 07:02:09;;;;;;;43.75;23.48;;;4.00;99.90;;;4.03;77.72;102697.28;5016918;28;20170;-71
2022/01/25 07:04:38;;;;;;;46.85;23.00;;;4.10;99.90;;;3.99;78.18;102705.66;5016099;28;20221;-71
2022/01/25 07:07:06;;;;;;;39.60;22.27;;;4.00;99.90;;;4.00;78.25;102712.72;5015439;28;20182;-71
2022/01/25 07:09:36;;;;;;;42.03;23.15;;;4.00;99.90;;;4.01;77.75;102709.09;5014293;28;20198;-70
2022/01/25 07:12:05;;;;;;;47.55;24.45;;;4.00;99.90;;;4.05;77.81;102702.53;5014579;28;22093;-70
2022/01/25 07:14:34;;;;;;;47.13;23.75;;;4.00;99.90;;;4.12;78.39;102701.06;5014347;28;20300;-70
2022/01/25 07:17:03;;;;;;;45.05;23.65;;;4.10;99.90;;;4.08;77.71;102697.78;5014418;28;20217;-69
2022/01/25 07:19:33;;;;;;;46.45;26.42;;;4.10;99.90;;;4.02;77.97;102706.28;5014114;28;20232;-70
2022/01/25 07:22:01;;;;;;;47.40;25.60;;;4.10;99.90;;;4.12;78.09;102706.44;5013877;28;20587;-70
2022/01/25 07:24:31;;;;;;;41.72;25.73;;;4.10;99.90;;;4.15;77.53;102706.22;5013884;28;20238;-70
2022/01/25 07:26:59;;;;;;;51.05;26.25;;;4.10;99.90;;;4.04;77.84;102699.00;5013989;28;20190;-71
2022/01/25 07:29:28;;;;;;;38.25;20.50;;;4.10;99.90;;;3.98;78.31;102698.59;5013627;28;20248;-70
2022/01/25 07:31:57;;;;;;;45.67;24.33;;;4.10;99.90;;;3.98;78.41;102698.59;5013515;28;20643;-70
2022/01/25 07:34:38;;;;;;;51.55;26.25;;;4.00;99.90;;;4.02;78.42;102702.78;5013508;28;20260;-72
2022/01/25 07:37:10;;;;;;;46.22;24.50;;;4.00;99.90;;;4.11;78.72;102702.94;5013987;28;20209;-71
2022/01/25 07:39:42;;;;;;;48.40;25.52;;;4.10;99.90;;;3.99;78.44;102702.97;5012396;28;20622;-70
2022/01/25 07:42:12;;;;;;;48.53;24.50;;;4.00;99.90;;;4.02;78.76;102703.59;5013524;28;20186;-71
2022/01/25 07:44:48;;;;;;;50.10;25.42;;;4.00;99.90;;;4.03;78.78;102697.28;5022839;28;20219;-70
2022/01/25 07:47:16;;;;;;;43.78;22.63;;;4.10;99.90;;;4.14;78.40;102712.53;5033236;28;20274;-70
2022/01/25 07:49:51;;;;;;;46.13;24.65;;;4.10;99.90;;;4.07;79.02;102704.09;5033222;28;20721;-70
2022/01/25 07:52:19;;;;;;;44.33;25.55;;;4.10;99.90;;;4.15;78.70;102711.56;5033240;28;20177;-71
2022/01/25 07:54:47;;;;;;;50.55;25.17;;;4.10;99.90;;;4.15;78.51;102707.06;5033334;28;20228;-71
2022/01/25 07:57:15;;;;;;;51.92;26.33;;;4.10;99.90;;;4.08;78.60;102703.13;5033302;28;20251;-71
2022/01/25 07:59:44;;;;;;;47.15;26.95;;;4.10;99.90;;;4.28;79.18;102709.66;5033233;28;20544;-70
2022/01/25 08:02:18;;;;;;;57.63;27.65;;;4.10;99.90;;;4.27;78.45;102710.63;5033427;28;20190;-70
2022/01/25 08:04:50;;;;;;;52.72;30.13;;;4.20;99.90;;;4.14;79.04;102708.03;5033438;28;20217;-70
2022/01/25 08:07:21;;;;;;;45.50;25.25;;;4.20;99.90;;;4.16;79.03;102710.63;5033750;28;20213;-70
2022/01/25 08:09:58;;;;;;;57.88;28.23;;;4.10;99.90;;;4.13;79.04;102702.78;5033560;28;20202;-70
2022/01/25 08:12:39;;;;;;;45.10;23.88;;;4.10;99.90;;;4.14;78.96;102707.19;5033461;28;20251;-71
2022/01/25 08:15:11;;;;;;;47.25;26.77;;;4.10;99.90;;;4.16;78.87;102703.44;5033045;28;20237;-69
2022/01/25 08:17:40;;;;;;;50.03;29.02;;;4.10;99.90;;;4.11;79.44;102704.75;5033779;28;20660;-70
2022/01/25 08:20:13;;;;;;;50.30;26.15;;;4.10;99.90;;;4.40;79.12;102689.97;5033597;28;20185;-70
2022/01/25 08:22:44;;;;;;;45.63;25.30;;;4.30;99.90;;;4.34;79.02;102691.28;5033592;28;20176;-70
2022/01/25 08:25:15;;;;;;;52.97;26.98;;;4.30;99.90;;;4.52;78.73;102691.69;5033090;28;20213;-70
2022/01/25 08:27:52;;;;;;;53.95;27.50;;;4.40;99.90;;;4.53;78.96;102688.03;5034829;28;20581;-70
2022/01/25 08:30:24;;;;;;;49.22;27.27;;;4.40;99.90;;;4.67;78.37;102693.19;5036981;28;20231;-70
2022/01/25 08:33:02;;;;;;;52.80;28.60;;;4.50;99.90;;;4.77;78.11;102691.47;5037079;28;20279;-71
2022/01/25 08:35:57;;;;;;;42.22;25.90;;;4.60;99.90;;;4.85;77.27;102695.38;5036832;28;20213;-70
2022/01/25 08:38:28;;;;;;;45.45;25.70;;;4.80;99.90;;;4.68;77.58;102694.91;5037210;28;20188;-71
2022/01/25 08:40:56;;;;;;;47.95;25.60;;;4.70;99.90;;;4.65;77.80;102705.84;5037247;28;20635;-70
2022/01/25 08:43:32;;;;;;;59.78;30.95;;;4.60;99.90;;;4.58;77.84;102701.94;5036199;28;20204;-69
2022/01/25 08:46:08;;;;;;;47.97;29.38;;;4.60;99.90;;;4.56;77.79;102693.16;5036415;28;20177;-71
2022/01/25 08:48:40;;;;;;;50.35;28.55;;;4.60;99.90;;;4.41;78.02;102697.03;5036832;28;20205;-71
2022/01/25 08:51:10;;;;;;;59.20;32.67;;;4.50;99.90;;;4.54;78.59;102692.44;5036699;28;20177;-71
2022/01/25 08:53:53;;;;;;;48.35;25.67;;;4.50;99.90;;;4.55;78.14;102691.44;5036191;28;20229;-72
2022/01/25 08:56:58;;;;;;;53.63;27.30;;;4.50;99.90;;;4.54;77.75;102695.13;5052408;28;20211;-70
2022/01/25 08:59:29;;;;;;;49.13;26.73;;;4.50;99.90;;;4.59;78.07;102690.25;5056308;28;20592;-71
2022/01/25 09:01:58;;;;;;;48.55;25.90;;;4.60;99.90;;;4.45;78.48;102693.16;5056241;28;20184;-71
2022/01/25 09:04:44;;;;;;;48.95;26.92;;;4.50;99.90;;;4.65;78.40;102694.25;5056205;28;20232;-71
2022/01/25 09:07:14;;;;;;;58.88;30.38;;;4.60;99.90;;;4.71;78.18;102680.38;5056419;28;20181;-71
2022/01/25 09:09:42;;;;;;;48.72;25.92;;;4.60;99.90;;;4.76;77.69;102687.09;5056345;28;20179;-72
2022/01/25 09:12:12;;;;;;;55.42;29.35;;;4.70;99.90;;;4.66;78.65;102690.59;5056478;28;20268;-71
2022/01/25 09:14:40;;;;;;;45.58;25.25;;;4.70;99.90;;;4.80;77.85;102690.38;5056523;28;20221;-71
2022/01/25 09:17:10;;;;;;;48.30;25.95;;;4.70;99.90;;;4.60;78.91;102691.94;5058018;28;20223;-71
2022/01/25 09:19:39;;;;;;;53.22;27.88;;;4.60;99.90;;;4.73;78.16;102692.69;5057924;28;20169;-72
2022/01/25 09:22:09;;;;;;;50.88;23.75;;;4.70;99.90;;;4.70;78.12;102692.94;5057299;28;20562;-71
2022/01/25 09:24:39;;;;;;;43.20;24.75;;;4.70;99.90;;;4.77;78.59;102694.16;5057235;28;20266;-72
2022/01/25 09:27:08;;;;;;;50.75;28.35;;;4.70;99.90;;;4.77;78.69;102696.00;5056833;28;20192;-71
2022/01/25 09:29:39;;;;;;;50.10;29.45;;;4.70;99.90;;;4.76;78.23;102696.97;5056299;28;20185;-71
2022/01/25 09:32:08;;;;;;;50.90;26.75;;;4.70;99.90;;;4.48;78.85;102692.91;5056132;28;20196;-72
2022/01/25 09:34:36;;;;;;;42.65;23.95;;;4.60;99.90;;;4.62;79.57;102694.50;5058505;28;20239;-73
2022/01/25 09:37:05;;;;;;;58.80;26.30;;;4.60;99.90;;;4.43;79.90;102699.59;5057697;28;20207;-72
2022/01/25 09:39:34;;;;;;;54.28;28.85;;;4.40;99.90;;;4.55;79.89;102688.75;5056277;28;20562;-73
2022/01/25 09:42:08;;;;;;;43.38;26.02;;;4.50;99.90;;;4.67;78.86;102695.84;5057819;28;20254;-72
2022/01/25 09:44:38;;;;;;;46.60;26.63;;;4.60;99.90;;;4.69;79.46;102690.38;5057108;28;20208;-71
2022/01/25 09:47:09;;;;;;;50.05;25.55;;;4.60;99.90;;;4.81;79.25;102695.63;5057322;28;20173;-71
2022/01/25 09:49:39;;;;;;;55.10;31.50;;;4.70;99.90;;;4.68;79.59;102692.22;5057063;28;20183;-72
2022/01/25 09:52:09;;;;;;;45.97;25.58;;;4.70;99.90;;;4.69;79.45;102691.25;5056073;28;20196;-71
2022/01/25 09:54:37;;;;;;;51.97;27.13;;;4.70;99.90;;;4.59;80.11;102689.41;5055439;28;20704;-71
2022/01/25 09:57:07;;;;;;;46.30;25.67;;;4.60;99.90;;;4.65;80.27;102689.75;5055270;28;20169;-72
2022/01/25 09:59:36;;;;;;;45.70;25.92;;;4.60;99.90;;;4.91;80.38;102692.22;5055141;28;20185;-72
2022/01/25 10:02:04;;;;;;;46.40;23.52;;;4.70;99.90;;;5.04;79.26;102692.94;5055037;28;20205;-72
2022/01/25 10:04:39;;;;;;;48.70;24.92;;;4.90;99.90;;;5.14;79.42;102685.84;5054574;28;20216;-71
2022/01/25 10:07:09;;;;;;;43.60;23.13;;;5.00;99.90;;;5.09;78.59;102682.69;5054730;28;20177;-71
2022/01/25 10:09:41;;;;;;;42.75;24.17;;;5.10;99.90;;;5.26;79.50;102682.19;5054749;28;20173;-71
2022/01/25 10:12:23;;;;;;;36.65;21.85;;;5.10;99.90;;;5.28;78.34;102677.53;5054515;28;20196;-72
2022/01/25 10:15:08;;;;;;;46.92;25.05;;;5.20;99.90;;;5.16;79.43;102670.50;5054519;28;20220;-74
2022/01/25 10:17:55;;;;;;;43.25;21.75;;;5.10;99.90;;;5.25;78.54;102670.59;5054501;28;20180;-72
2022/01/25 10:20:31;;;;;;;36.92;20.80;;;5.20;99.90;;;5.24;78.29;102671.56;5054511;28;20545;-72
2022/01/25 10:23:01;;;;;;;46.53;23.25;;;5.30;99.90;;;5.22;78.48;102672.69;5054811;28;20548;-70
2022/01/25 10:25:35;;;;;;;41.95;22.50;;;5.20;99.90;;;5.24;79.14;102670.72;5054465;28;20208;-71
2022/01/25 10:28:12;;;;;;;37.08;23.13;;;5.20;99.90;;;5.30;78.64;102670.22;5054251;28;20181;-72
2022/01/25 10:30:49;;;;;;;35.35;20.73;;;5.20;99.90;;;5.16;78.36;102673.19;5048891;28;20254;-71
2022/01/25 10:33:27;;;;;;;41.38;22.05;;;5.10;99.90;;;5.28;78.05;102672.16;5034682;28;20181;-71
2022/01/25 10:35:57;;;;;;;40.33;23.38;;;5.20;99.90;;;5.20;78.81;102661.22;5033149;28;20211;-72
2022/01/25 10:38:30;;;;;;;35.75;20.02;;;5.20;99.90;;;5.19;79.23;102659.50;5034749;28;20200;-72
2022/01/25 10:41:04;;;;;;;44.20;22.60;;;5.20;99.90;;;5.01;78.95;102658.31;5034839;28;20185;-72
2022/01/25 10:43:36;;;;;;;39.88;21.50;;;5.10;99.90;;;5.06;79.88;102661.47;5034612;28;20211;-72
2022/01/25 10:46:18;;;;;;;37.13;21.75;;;5.00;99.90;;;5.07;79.43;102657.81;5034542;28;20174;-73
2022/01/25 10:48:51;;;;;;;39.35;22.60;;;5.00;99.90;;;5.27;79.53;102648.16;5034291;28;20185;-73
2022/01/25 10:51:24;;;;;;;37.47;22.38;;;5.10;99.90;;;5.32;79.08;102651.31;5033471;28;20189;-72
2022/01/25 10:54:15;;;;;;;35.00;19.92;;;5.20;99.90;;;5.45;79.40;102658.22;5034181;28;20213;-72
2022/01/25 10:56:48;;;;;;;35.33;20.88;;;5.20;99.90;;;5.15;78.70;102658.03;5030089;28;20690;-73
2022/01/25 10:59:22;;;;;;;36.35;19.40;;;5.20;99.90;;;5.08;79.61;102654.16;5034286;28;20542;-72
2022/01/25 11:01:54;;;;;;;34.38;18.55;;;5.10;99.90;;;5.08;79.50;102649.63;5034300;28;20185;-72
2022/01/25 11:04:32;;;;;;;34.40;19.08;;;5.10;99.90;;;5.29;79.02;102663.13;5078061;22;20209;-72
2022/01/25 11:07:06;;;;;;;33.65;19.38;;;5.20;99.90;;;5.12;78.82;102656.47;5031152;28;20556;-72
2022/01/25 11:09:44;;;;;;;29.80;17.75;;;5.20;99.90;;;5.37;78.76;102663.38;5055568;28;20633;-72
2022/01/25 11:12:19;;;;;;;30.90;17.98;;;5.20;99.90;;;5.30;78.61;102656.81;5037834;28;20251;-72
2022/01/25 11:14:53;;;;;;;32.33;17.00;;;5.20;99.90;;;5.45;78.57;102654.69;5035772;28;20240;-73
2022/01/25 11:17:27;;;;;;;29.45;18.85;;;5.30;99.90;;;5.51;78.45;102659.56;5054070;28;20180;-72
2022/01/25 11:19:59;;;;;;;31.35;18.33;;;5.40;99.90;;;5.44;78.15;102651.16;5035571;28;20193;-72
2022/01/25 11:22:30;;;;;;;31.50;18.15;;;5.30;99.90;;;5.45;77.86;102642.13;5035562;28;20185;-72
2022/01/25 11:25:01;;;;;;;38.78;16.70;;;5.40;99.90;;;5.35;78.56;102643.00;5035546;28;20275;-73
2022/01/25 11:27:32;;;;;;;30.00;17.65;;;5.40;99.90;;;5.28;78.50;102639.94;5053098;28;20169;-71
2022/01/25 11:30:07;;;;;;;32.78;17.65;;;5.30;99.90;;;5.38;78.21;102632.84;5053290;28;20169;-72
2022/01/25 11:32:44;;;;;;;31.73;16.10;;;5.30;99.90;;;5.31;77.76;102633.50;5035727;28;20191;-71
2022/01/25 11:59:15;;;;;;;26.83;15.23;;;5.30;99.90;;;5.33;78.36;102629.69;4962965;28;20214;-72
2022/01/25 12:01:52;;;;;;;30.98;20.60;;;5.30;99.90;;;5.13;78.86;102635.88;5056243;28;20444;-77
2022/01/25 12:04:21;;;;;;;35.63;19.15;;;5.20;99.90;;;5.31;78.57;102631.66;5069206;28;20177;-76
2022/01/25 12:07:00;;;;;;;30.30;16.95;;;5.20;99.90;;;5.49;78.60;102634.66;5052544;28;20203;-79